createdAt,value
2023-02-22T06:02:57.590Z,39.42
2023-02-22T06:08:05.586Z,36.25
2023-02-22T06:10:36.281Z,40.72
2023-02-22T06:13:14.635Z,42.33
2023-02-22T06:15:51.569Z,39.80
2023-02-22T06:18:26.805Z,36.72
2023-02-22T06:21:03.552Z,37.08
2023-02-22T06:23:33.792Z,32.83
2023-02-22T06:26:10.605Z,30.77
2023-02-22T06:28:47.615Z,30.27
2023-02-22T06:31:18.461Z,29.90
2023-02-22T06:33:57.608Z,23.50
2023-02-22T06:36:27.650Z,32.15
2023-02-22T06:39:08.546Z,30.48
2023-02-22T06:41:40.506Z,32.60
2023-02-22T06:46:59.665Z,32.60
2023-02-22T06:52:08.641Z,35.20
2023-02-22T06:54:39.436Z,36.45
2023-02-22T06:57:16.582Z,37.45
2023-02-22T06:59:47.145Z,37.63
2023-02-22T07:02:24.601Z,36.47
2023-02-22T07:04:57.458Z,35.88
2023-02-22T07:07:33.652Z,34.67
2023-02-22T07:10:04.968Z,36.00
2023-02-22T07:12:41.935Z,34.70
2023-02-22T07:15:13.745Z,35.42
2023-02-22T07:17:50.629Z,36.30
2023-02-22T07:20:25.103Z,33.80
2023-02-22T07:23:02.812Z,37.67
2023-02-22T07:25:33.142Z,38.40
2023-02-22T07:28:10.664Z,37.30
2023-02-22T07:30:41.390Z,39.58
2023-02-22T07:33:21.711Z,39.55
2023-02-22T07:35:54.610Z,36.72
2023-02-22T07:38:30.688Z,37.58
2023-02-22T07:41:01.792Z,36.55
2023-02-22T07:43:39.757Z,36.42
2023-02-22T07:46:10.216Z,34.88
2023-02-22T07:48:46.723Z,37.45
2023-02-22T07:51:21.275Z,36.25
2023-02-22T07:53:58.679Z,35.72
2023-02-22T07:56:28.964Z,37.28
2023-02-22T07:59:06.712Z,35.97
2023-02-22T08:01:43.754Z,36.75
2023-02-22T08:04:13.860Z,35.70
2023-02-22T08:06:52.681Z,35.67
2023-02-22T08:09:23.736Z,34.85
2023-02-22T08:12:00.713Z,34.87
2023-02-22T08:14:30.795Z,35.22
2023-02-22T08:17:08.805Z,35.20
2023-02-22T08:19:39.280Z,33.95
2023-02-22T08:22:20.182Z,36.38
2023-02-22T08:24:54.310Z,34.55
2023-02-22T08:27:34.700Z,33.25
2023-02-22T08:30:04.917Z,33.85
2023-02-22T08:32:41.868Z,32.25
2023-02-22T08:35:13.768Z,32.17
2023-02-22T08:37:56.763Z,31.65
2023-02-22T08:40:37.735Z,31.77
2023-02-22T08:43:07.789Z,30.80
2023-02-22T08:45:44.759Z,28.95
2023-02-22T08:48:15.403Z,29.00
2023-02-22T08:50:52.867Z,28.85
2023-02-22T08:53:25.611Z,27.98
2023-02-22T08:56:02.904Z,28.13
2023-02-22T08:58:39.770Z,29.27
2023-02-22T09:01:09.860Z,29.45
2023-02-22T09:03:46.834Z,29.35
2023-02-22T09:06:16.980Z,29.65
2023-02-22T09:08:55.864Z,29.40
2023-02-22T09:11:26.146Z,28.05
2023-02-22T09:14:02.818Z,28.23
2023-02-22T09:16:33.814Z,27.30
2023-02-22T09:19:10.788Z,27.87
2023-02-22T09:21:47.775Z,28.38
2023-02-22T09:24:20.536Z,26.65
2023-02-22T09:27:00.794Z,26.70
2023-02-22T09:29:33.440Z,25.77
2023-02-22T09:32:10.885Z,24.30
2023-02-22T09:34:45.996Z,24.20
2023-02-22T09:37:23.882Z,25.30
2023-02-22T09:39:59.617Z,24.10
2023-02-22T09:42:43.829Z,24.17
2023-02-22T09:45:23.628Z,23.70
2023-02-22T09:48:20.795Z,23.83
2023-02-22T09:51:02.908Z,25.00
2023-02-22T09:53:42.020Z,23.40
2023-02-22T09:56:24.823Z,23.08
2023-02-22T09:58:58.397Z,23.73
2023-02-22T10:01:42.113Z,24.30
2023-02-22T10:04:26.813Z,24.08
2023-02-22T10:07:08.863Z,23.27
2023-02-22T10:12:32.953Z,23.77
2023-02-22T10:18:56.874Z,24.05
2023-02-22T10:21:58.602Z,24.38
2023-02-22T10:24:52.892Z,24.65
2023-02-22T10:27:32.590Z,24.75
2023-02-22T10:30:24.626Z,24.25
2023-02-22T10:33:02.620Z,24.13
2023-02-22T10:35:46.937Z,24.35
2023-02-22T10:38:23.605Z,24.60
2023-02-22T10:41:05.914Z,23.35
2023-02-22T10:43:41.485Z,25.10
2023-02-22T10:46:22.899Z,24.45
2023-02-22T10:49:00.285Z,25.10
2023-02-22T10:51:36.958Z,24.52
2023-02-22T10:54:27.387Z,23.50
2023-02-22T10:57:06.928Z,23.98
2023-02-22T10:59:43.044Z,23.90
2023-02-22T11:02:30.903Z,23.60
2023-02-22T11:05:04.170Z,25.10
2023-02-22T11:07:43.960Z,24.98
2023-02-22T11:10:14.072Z,25.05
2023-02-22T11:12:54.954Z,23.70
2023-02-22T11:15:32.470Z,23.20
2023-02-22T11:18:08.986Z,23.13
2023-02-22T11:20:42.112Z,23.80
2023-02-22T11:23:19.935Z,24.45
2023-02-22T11:26:08.323Z,22.90
2023-02-22T11:28:56.043Z,24.35
2023-02-22T11:31:32.404Z,24.40
2023-02-22T11:34:12.931Z,24.80
2023-02-22T11:36:46.877Z,24.90
2023-02-22T11:39:35.018Z,24.33
2023-02-22T11:42:26.020Z,23.48
2023-02-22T11:45:19.937Z,25.48
2023-02-22T11:47:56.814Z,23.40
2023-02-22T11:50:41.083Z,24.75
2023-02-22T11:53:34.659Z,25.33
2023-02-22T11:56:37.200Z,23.77
2023-02-22T11:59:24.009Z,23.63
2023-02-22T12:02:07.013Z,23.48
2023-02-22T12:04:59.949Z,23.30
2023-02-22T12:07:55.120Z,23.30
2023-02-22T12:10:41.914Z,23.52
2023-02-22T12:13:41.093Z,22.80
2023-02-22T12:16:26.821Z,21.73
2023-02-22T12:19:21.043Z,22.10
2023-02-22T12:22:02.773Z,21.77
2023-02-22T12:24:47.140Z,22.73
2023-02-22T12:27:27.475Z,21.85
2023-02-22T12:30:11.024Z,22.45
2023-02-22T12:32:53.272Z,22.83
2023-02-22T12:35:27.354Z,22.55
2023-02-22T12:38:15.061Z,22.02
2023-02-22T12:41:04.144Z,23.30
2023-02-22T12:43:43.812Z,22.02
2023-02-22T12:46:25.112Z,21.60
2023-02-22T12:49:08.216Z,21.55
2023-02-22T12:51:53.165Z,21.58
2023-02-22T12:54:35.050Z,22.30
2023-02-22T12:57:22.281Z,21.30
2023-02-22T12:59:59.290Z,21.52
2023-02-22T13:02:42.175Z,21.02
2023-02-22T13:05:18.368Z,21.75
2023-02-22T13:08:08.087Z,21.25
2023-02-22T13:11:09.675Z,20.20
2023-02-22T13:13:59.255Z,21.20
2023-02-22T13:16:44.278Z,20.85
2023-02-22T13:19:46.071Z,20.85
2023-02-22T13:22:24.552Z,21.60
2023-02-22T13:25:16.224Z,20.63
2023-02-22T13:27:55.273Z,20.27
2023-02-22T13:30:39.185Z,20.13
2023-02-22T13:33:32.198Z,21.38
2023-02-22T13:36:34.173Z,21.00
2023-02-22T13:39:34.183Z,21.70
2023-02-22T13:42:53.259Z,21.48
2023-02-22T13:45:56.839Z,22.50
2023-02-22T13:49:14.112Z,22.20
2023-02-22T13:51:58.109Z,21.95
2023-02-22T13:54:41.131Z,21.70
2023-02-22T13:57:36.187Z,21.63
